sensor_id;sensor_type;location;lat;lon;timestamp;temperature;humidity
2042;DHT22;1026;51.460;7.252;2023-04-26T00:02:22;9.70;85.50
2042;DHT22;1026;51.460;7.252;2023-04-26T00:04:52;9.70;85.60
2042;DHT22;1026;51.460;7.252;2023-04-26T00:07:22;9.70;85.60
2042;DHT22;1026;51.460;7.252;2023-04-26T00:09:50;9.50;85.40
2042;DHT22;1026;51.460;7.252;2023-04-26T00:12:17;9.70;85.60
2042;DHT22;1026;51.460;7.252;2023-04-26T00:14:43;9.60;85.50
2042;DHT22;1026;51.460;7.252;2023-04-26T00:17:09;9.60;85.60
2042;DHT22;1026;51.460;7.252;2023-04-26T00:19:34;9.50;85.50
2042;DHT22;1026;51.460;7.252;2023-04-26T00:22:01;9.50;85.60
2042;DHT22;1026;51.460;7.252;2023-04-26T00:24:27;9.60;85.70
2042;DHT22;1026;51.460;7.252;2023-04-26T00:26:54;9.50;85.70
2042;DHT22;1026;51.460;7.252;2023-04-26T00:29:20;9.50;85.70
2042;DHT22;1026;51.460;7.252;2023-04-26T00:31:46;9.50;85.70
2042;DHT22;1026;51.460;7.252;2023-04-26T00:34:12;9.50;85.70
2042;DHT22;1026;51.460;7.252;2023-04-26T00:36:38;9.50;85.70
2042;DHT22;1026;51.460;7.252;2023-04-26T00:39:03;9.40;85.60
2042;DHT22;1026;51.460;7.252;2023-04-26T00:41:29;9.50;85.70
2042;DHT22;1026;51.460;7.252;2023-04-26T00:43:55;9.30;85.50
2042;DHT22;1026;51.460;7.252;2023-04-26T00:46:21;9.50;85.70
2042;DHT22;1026;51.460;7.252;2023-04-26T00:48:47;9.40;85.70
2042;DHT22;1026;51.460;7.252;2023-04-26T00:51:14;9.40;85.70
2042;DHT22;1026;51.460;7.252;2023-04-26T00:53:40;9.40;85.70
2042;DHT22;1026;51.460;7.252;2023-04-26T00:56:08;9.40;85.80
2042;DHT22;1026;51.460;7.252;2023-04-26T00:58:35;9.40;85.80
2042;DHT22;1026;51.460;7.252;2023-04-26T01:01:01;9.30;85.70
2042;DHT22;1026;51.460;7.252;2023-04-26T01:03:27;9.20;85.60
2042;DHT22;1026;51.460;7.252;2023-04-26T01:05:54;9.30;85.80
2042;DHT22;1026;51.460;7.252;2023-04-26T01:08:20;9.30;85.80
2042;DHT22;1026;51.460;7.252;2023-04-26T01:10:47;9.10;85.60
2042;DHT22;1026;51.460;7.252;2023-04-26T01:13:14;9.30;85.80
2042;DHT22;1026;51.460;7.252;2023-04-26T01:15:47;9.20;86.00
2042;DHT22;1026;51.460;7.252;2023-04-26T01:18:13;9.20;85.80
2042;DHT22;1026;51.460;7.252;2023-04-26T01:20:40;9.20;85.70
2042;DHT22;1026;51.460;7.252;2023-04-26T01:23:07;9.10;85.70
2042;DHT22;1026;51.460;7.252;2023-04-26T01:25:34;9.20;85.80
2042;DHT22;1026;51.460;7.252;2023-04-26T01:28:00;9.00;85.60
2042;DHT22;1026;51.460;7.252;2023-04-26T01:30:26;9.10;85.70
2042;DHT22;1026;51.460;7.252;2023-04-26T01:32:51;9.10;85.70
2042;DHT22;1026;51.460;7.252;2023-04-26T01:35:17;9.10;85.70
2042;DHT22;1026;51.460;7.252;2023-04-26T01:37:43;9.10;85.70
2042;DHT22;1026;51.460;7.252;2023-04-26T01:40:09;9.00;85.70
2042;DHT22;1026;51.460;7.252;2023-04-26T01:42:35;9.10;85.80
2042;DHT22;1026;51.460;7.252;2023-04-26T01:45:01;9.10;85.80
2042;DHT22;1026;51.460;7.252;2023-04-26T01:47:27;9.10;85.80
2042;DHT22;1026;51.460;7.252;2023-04-26T01:49:53;9.00;85.70
2042;DHT22;1026;51.460;7.252;2023-04-26T01:52:18;9.00;85.80
2042;DHT22;1026;51.460;7.252;2023-04-26T01:54:44;8.90;85.70
2042;DHT22;1026;51.460;7.252;2023-04-26T01:57:10;8.90;85.70
2042;DHT22;1026;51.460;7.252;2023-04-26T01:59:35;9.00;85.90
2042;DHT22;1026;51.460;7.252;2023-04-26T02:02:01;8.90;85.70
2042;DHT22;1026;51.460;7.252;2023-04-26T02:04:27;8.90;85.70
2042;DHT22;1026;51.460;7.252;2023-04-26T02:06:52;8.80;85.60
2042;DHT22;1026;51.460;7.252;2023-04-26T02:09:18;8.90;85.70
2042;DHT22;1026;51.460;7.252;2023-04-26T02:11:44;8.90;85.80
2042;DHT22;1026;51.460;7.252;2023-04-26T02:14:09;8.90;85.90
2042;DHT22;1026;51.460;7.252;2023-04-26T02:16:35;8.80;85.80
2042;DHT22;1026;51.460;7.252;2023-04-26T02:19:02;8.80;85.80
2042;DHT22;1026;51.460;7.252;2023-04-26T02:21:29;8.80;85.80
2042;DHT22;1026;51.460;7.252;2023-04-26T02:23:55;8.80;85.80
2042;DHT22;1026;51.460;7.252;2023-04-26T02:26:21;8.80;85.80
2042;DHT22;1026;51.460;7.252;2023-04-26T02:28:47;8.80;85.80
2042;DHT22;1026;51.460;7.252;2023-04-26T02:31:13;8.80;85.80
2042;DHT22;1026;51.460;7.252;2023-04-26T02:33:39;8.80;85.80
2042;DHT22;1026;51.460;7.252;2023-04-26T02:36:05;8.60;85.60
2042;DHT22;1026;51.460;7.252;2023-04-26T02:38:33;8.80;85.80
2042;DHT22;1026;51.460;7.252;2023-04-26T02:41:00;8.70;85.70
2042;DHT22;1026;51.460;7.252;2023-04-26T02:43:26;8.70;85.80
2042;DHT22;1026;51.460;7.252;2023-04-26T02:45:52;8.70;85.80
2042;DHT22;1026;51.460;7.252;2023-04-26T02:48:18;8.50;85.60
2042;DHT22;1026;51.460;7.252;2023-04-26T02:50:44;8.60;85.70
2042;DHT22;1026;51.460;7.252;2023-04-26T02:53:10;8.70;85.80
2042;DHT22;1026;51.460;7.252;2023-04-26T02:55:38;8.60;85.80
2042;DHT22;1026;51.460;7.252;2023-04-26T02:58:03;8.60;85.80
2042;DHT22;1026;51.460;7.252;2023-04-26T03:00:29;8.60;85.80
2042;DHT22;1026;51.460;7.252;2023-04-26T03:02:55;8.60;85.80
2042;DHT22;1026;51.460;7.252;2023-04-26T03:05:21;8.60;85.80
2042;DHT22;1026;51.460;7.252;2023-04-26T03:07:47;8.60;85.80
2042;DHT22;1026;51.460;7.252;2023-04-26T03:10:12;8.60;85.90
2042;DHT22;1026;51.460;7.252;2023-04-26T03:12:38;8.50;85.80
2042;DHT22;1026;51.460;7.252;2023-04-26T03:15:04;8.50;85.80
2042;DHT22;1026;51.460;7.252;2023-04-26T03:17:30;8.50;85.80
2042;DHT22;1026;51.460;7.252;2023-04-26T03:19:56;8.50;85.80
2042;DHT22;1026;51.460;7.252;2023-04-26T03:22:22;8.50;85.90
2042;DHT22;1026;51.460;7.252;2023-04-26T03:24:48;8.50;85.90
2042;DHT22;1026;51.460;7.252;2023-04-26T03:27:13;8.50;85.90
2042;DHT22;1026;51.460;7.252;2023-04-26T03:29:39;8.50;85.90
2042;DHT22;1026;51.460;7.252;2023-04-26T03:32:05;8.30;85.70
2042;DHT22;1026;51.460;7.252;2023-04-26T03:34:31;8.30;85.70
2042;DHT22;1026;51.460;7.252;2023-04-26T03:36:57;8.40;85.80
2042;DHT22;1026;51.460;7.252;2023-04-26T03:39:23;8.40;85.80
2042;DHT22;1026;51.460;7.252;2023-04-26T03:41:48;8.40;85.90
2042;DHT22;1026;51.460;7.252;2023-04-26T03:44:14;8.40;85.80
2042;DHT22;1026;51.460;7.252;2023-04-26T03:46:40;8.30;85.80
2042;DHT22;1026;51.460;7.252;2023-04-26T03:49:06;8.20;85.70
2042;DHT22;1026;51.460;7.252;2023-04-26T03:51:32;8.30;85.80
2042;DHT22;1026;51.460;7.252;2023-04-26T03:53:58;8.20;85.70
2042;DHT22;1026;51.460;7.252;2023-04-26T03:56:24;8.30;85.80
2042;DHT22;1026;51.460;7.252;2023-04-26T03:58:49;8.30;85.90
2042;DHT22;1026;51.460;7.252;2023-04-26T04:01:15;8.30;85.90
2042;DHT22;1026;51.460;7.252;2023-04-26T04:03:41;8.20;85.80
2042;DHT22;1026;51.460;7.252;2023-04-26T04:06:07;8.20;85.80
2042;DHT22;1026;51.460;7.252;2023-04-26T04:08:32;8.20;85.80
2042;DHT22;1026;51.460;7.252;2023-04-26T04:10:59;8.20;85.80
2042;DHT22;1026;51.460;7.252;2023-04-26T04:13:25;8.20;85.80
2042;DHT22;1026;51.460;7.252;2023-04-26T04:15:51;8.10;85.70
2042;DHT22;1026;51.460;7.252;2023-04-26T04:18:17;8.20;85.80
2042;DHT22;1026;51.460;7.252;2023-04-26T04:20:43;8.20;85.80
2042;DHT22;1026;51.460;7.252;2023-04-26T04:23:09;8.20;85.80
2042;DHT22;1026;51.460;7.252;2023-04-26T04:25:35;8.10;85.80
2042;DHT22;1026;51.460;7.252;2023-04-26T04:28:03;8.00;85.70
2042;DHT22;1026;51.460;7.252;2023-04-26T04:30:29;8.10;85.80
2042;DHT22;1026;51.460;7.252;2023-04-26T04:32:55;8.10;85.70
2042;DHT22;1026;51.460;7.252;2023-04-26T04:35:23;8.10;85.90
2042;DHT22;1026;51.460;7.252;2023-04-26T04:37:54;8.00;85.80
2042;DHT22;1026;51.460;7.252;2023-04-26T04:40:21;8.00;85.80
2042;DHT22;1026;51.460;7.252;2023-04-26T04:42:47;8.00;85.80
2042;DHT22;1026;51.460;7.252;2023-04-26T04:45:12;8.00;85.80
2042;DHT22;1026;51.460;7.252;2023-04-26T04:47:39;8.00;85.80
2042;DHT22;1026;51.460;7.252;2023-04-26T04:50:05;8.00;85.80
2042;DHT22;1026;51.460;7.252;2023-04-26T04:52:32;8.00;85.80
2042;DHT22;1026;51.460;7.252;2023-04-26T04:54:58;7.90;85.80
2042;DHT22;1026;51.460;7.252;2023-04-26T04:57:24;8.00;85.90
2042;DHT22;1026;51.460;7.252;2023-04-26T04:59:50;8.00;85.90
2042;DHT22;1026;51.460;7.252;2023-04-26T05:02:15;8.00;85.80
2042;DHT22;1026;51.460;7.252;2023-04-26T05:04:41;7.90;85.80
2042;DHT22;1026;51.460;7.252;2023-04-26T05:07:07;8.00;85.90
2042;DHT22;1026;51.460;7.252;2023-04-26T05:09:34;7.80;85.70
2042;DHT22;1026;51.460;7.252;2023-04-26T05:11:59;7.90;85.90
2042;DHT22;1026;51.460;7.252;2023-04-26T05:14:25;7.80;85.70
2042;DHT22;1026;51.460;7.252;2023-04-26T05:16:51;7.80;85.70
2042;DHT22;1026;51.460;7.252;2023-04-26T05:19:17;7.90;85.80
2042;DHT22;1026;51.460;7.252;2023-04-26T05:21:43;7.80;85.80
2042;DHT22;1026;51.460;7.252;2023-04-26T05:24:08;7.90;85.90
2042;DHT22;1026;51.460;7.252;2023-04-26T05:26:34;7.80;85.90
2042;DHT22;1026;51.460;7.252;2023-04-26T05:29:00;7.80;85.90
2042;DHT22;1026;51.460;7.252;2023-04-26T05:31:26;7.80;85.90
2042;DHT22;1026;51.460;7.252;2023-04-26T05:33:52;7.70;85.90
2042;DHT22;1026;51.460;7.252;2023-04-26T05:36:18;7.70;85.90
2042;DHT22;1026;51.460;7.252;2023-04-26T05:38:43;7.80;86.00
2042;DHT22;1026;51.460;7.252;2023-04-26T05:41:09;7.80;86.00
2042;DHT22;1026;51.460;7.252;2023-04-26T05:43:36;7.70;86.00
2042;DHT22;1026;51.460;7.252;2023-04-26T05:46:17;7.80;86.00
2042;DHT22;1026;51.460;7.252;2023-04-26T05:48:43;7.90;86.20
2042;DHT22;1026;51.460;7.252;2023-04-26T05:51:08;7.80;86.10
2042;DHT22;1026;51.460;7.252;2023-04-26T05:53:34;7.80;86.10
2042;DHT22;1026;51.460;7.252;2023-04-26T05:56:00;7.80;86.10
2042;DHT22;1026;51.460;7.252;2023-04-26T05:58:26;7.60;86.70
2042;DHT22;1026;51.460;7.252;2023-04-26T06:00:52;7.60;86.00
2042;DHT22;1026;51.460;7.252;2023-04-26T06:03:19;7.60;86.00
2042;DHT22;1026;51.460;7.252;2023-04-26T06:05:44;7.70;86.20
2042;DHT22;1026;51.460;7.252;2023-04-26T06:08:10;7.60;86.10
2042;DHT22;1026;51.460;7.252;2023-04-26T06:10:36;7.70;86.30
2042;DHT22;1026;51.460;7.252;2023-04-26T06:13:02;7.70;86.20
2042;DHT22;1026;51.460;7.252;2023-04-26T06:15:28;7.60;86.10
2042;DHT22;1026;51.460;7.252;2023-04-26T06:17:56;7.70;86.30
2042;DHT22;1026;51.460;7.252;2023-04-26T06:20:21;7.70;86.30
2042;DHT22;1026;51.460;7.252;2023-04-26T06:22:47;7.70;86.30
2042;DHT22;1026;51.460;7.252;2023-04-26T06:25:13;7.70;86.30
2042;DHT22;1026;51.460;7.252;2023-04-26T06:27:39;7.70;86.30
2042;DHT22;1026;51.460;7.252;2023-04-26T06:30:06;7.70;86.30
2042;DHT22;1026;51.460;7.252;2023-04-26T06:32:32;7.70;86.40
2042;DHT22;1026;51.460;7.252;2023-04-26T06:34:58;7.60;86.40
2042;DHT22;1026;51.460;7.252;2023-04-26T06:37:23;7.70;86.50
2042;DHT22;1026;51.460;7.252;2023-04-26T06:39:49;7.70;86.50
2042;DHT22;1026;51.460;7.252;2023-04-26T06:42:15;7.60;86.40
2042;DHT22;1026;51.460;7.252;2023-04-26T06:44:41;7.60;86.50
2042;DHT22;1026;51.460;7.252;2023-04-26T06:47:06;7.70;86.50
2042;DHT22;1026;51.460;7.252;2023-04-26T06:49:34;7.70;86.50
2042;DHT22;1026;51.460;7.252;2023-04-26T06:52:00;7.60;86.50
2042;DHT22;1026;51.460;7.252;2023-04-26T06:54:28;7.60;86.50
2042;DHT22;1026;51.460;7.252;2023-04-26T06:56:54;7.60;86.50
2042;DHT22;1026;51.460;7.252;2023-04-26T06:59:19;7.50;86.50
2042;DHT22;1026;51.460;7.252;2023-04-26T07:01:45;7.60;86.50
2042;DHT22;1026;51.460;7.252;2023-04-26T07:04:11;7.60;86.50
2042;DHT22;1026;51.460;7.252;2023-04-26T07:06:37;7.60;86.60
2042;DHT22;1026;51.460;7.252;2023-04-26T07:09:03;7.60;86.50
2042;DHT22;1026;51.460;7.252;2023-04-26T07:11:29;7.60;86.60
2042;DHT22;1026;51.460;7.252;2023-04-26T07:13:55;7.40;86.50
2042;DHT22;1026;51.460;7.252;2023-04-26T07:16:21;7.60;86.60
2042;DHT22;1026;51.460;7.252;2023-04-26T07:18:47;7.60;86.60
2042;DHT22;1026;51.460;7.252;2023-04-26T07:21:14;7.60;86.60
2042;DHT22;1026;51.460;7.252;2023-04-26T07:23:39;7.60;86.60
2042;DHT22;1026;51.460;7.252;2023-04-26T07:26:05;7.60;86.60
2042;DHT22;1026;51.460;7.252;2023-04-26T07:28:38;7.60;86.60
2042;DHT22;1026;51.460;7.252;2023-04-26T07:31:03;7.60;86.60
2042;DHT22;1026;51.460;7.252;2023-04-26T07:33:29;7.60;86.50
2042;DHT22;1026;51.460;7.252;2023-04-26T07:35:56;7.60;86.50
2042;DHT22;1026;51.460;7.252;2023-04-26T07:38:25;7.60;86.50
2042;DHT22;1026;51.460;7.252;2023-04-26T07:40:51;7.70;86.60
2042;DHT22;1026;51.460;7.252;2023-04-26T07:43:26;7.70;86.60
2042;DHT22;1026;51.460;7.252;2023-04-26T07:45:52;7.70;86.70
2042;DHT22;1026;51.460;7.252;2023-04-26T07:48:17;7.70;86.70
2042;DHT22;1026;51.460;7.252;2023-04-26T07:50:43;7.60;86.60
2042;DHT22;1026;51.460;7.252;2023-04-26T07:53:09;7.70;86.70
2042;DHT22;1026;51.460;7.252;2023-04-26T07:55:35;7.70;86.70
2042;DHT22;1026;51.460;7.252;2023-04-26T07:58:02;7.70;86.50
2042;DHT22;1026;51.460;7.252;2023-04-26T08:00:28;7.70;86.60
2042;DHT22;1026;51.460;7.252;2023-04-26T08:02:53;7.70;86.70
2042;DHT22;1026;51.460;7.252;2023-04-26T08:05:34;7.70;86.70
2042;DHT22;1026;51.460;7.252;2023-04-26T08:08:06;7.70;86.80
2042;DHT22;1026;51.460;7.252;2023-04-26T08:10:31;7.70;86.70
2042;DHT22;1026;51.460;7.252;2023-04-26T08:12:57;7.70;86.60
2042;DHT22;1026;51.460;7.252;2023-04-26T08:15:27;7.80;86.70
2042;DHT22;1026;51.460;7.252;2023-04-26T08:17:53;7.60;86.50
2042;DHT22;1026;51.460;7.252;2023-04-26T08:20:19;7.80;86.70
2042;DHT22;1026;51.460;7.252;2023-04-26T08:22:45;7.80;86.70
2042;DHT22;1026;51.460;7.252;2023-04-26T08:25:11;7.80;86.70
2042;DHT22;1026;51.460;7.252;2023-04-26T08:27:36;7.80;86.60
2042;DHT22;1026;51.460;7.252;2023-04-26T08:30:03;7.80;86.60
2042;DHT22;1026;51.460;7.252;2023-04-26T08:32:29;7.80;86.60
2042;DHT22;1026;51.460;7.252;2023-04-26T08:34:55;7.90;86.80
2042;DHT22;1026;51.460;7.252;2023-04-26T08:37:20;7.80;86.60
2042;DHT22;1026;51.460;7.252;2023-04-26T08:39:46;7.90;86.80
2042;DHT22;1026;51.460;7.252;2023-04-26T08:42:14;7.90;86.80
2042;DHT22;1026;51.460;7.252;2023-04-26T08:44:41;7.80;86.70
2042;DHT22;1026;51.460;7.252;2023-04-26T08:47:16;7.80;86.60
2042;DHT22;1026;51.460;7.252;2023-04-26T08:49:45;7.90;86.60
2042;DHT22;1026;51.460;7.252;2023-04-26T08:52:14;7.90;86.70
2042;DHT22;1026;51.460;7.252;2023-04-26T08:54:47;7.90;86.70
2042;DHT22;1026;51.460;7.252;2023-04-26T08:57:14;8.00;86.80
2042;DHT22;1026;51.460;7.252;2023-04-26T08:59:41;8.00;87.40
2042;DHT22;1026;51.460;7.252;2023-04-26T09:02:09;8.00;86.70
2042;DHT22;1026;51.460;7.252;2023-04-26T09:04:39;8.00;86.70
2042;DHT22;1026;51.460;7.252;2023-04-26T09:07:06;8.10;86.80
2042;DHT22;1026;51.460;7.252;2023-04-26T09:09:35;8.00;86.70
2042;DHT22;1026;51.460;7.252;2023-04-26T09:12:04;8.10;86.90
2042;DHT22;1026;51.460;7.252;2023-04-26T09:14:30;8.10;86.80
2042;DHT22;1026;51.460;7.252;2023-04-26T09:16:56;8.10;86.70
2042;DHT22;1026;51.460;7.252;2023-04-26T09:19:38;8.20;86.50
2042;DHT22;1026;51.460;7.252;2023-04-26T09:22:04;8.20;86.60
2042;DHT22;1026;51.460;7.252;2023-04-26T09:24:47;8.10;86.40
2042;DHT22;1026;51.460;7.252;2023-04-26T09:27:14;8.20;86.50
2042;DHT22;1026;51.460;7.252;2023-04-26T09:29:57;8.20;86.40
2042;DHT22;1026;51.460;7.252;2023-04-26T09:32:24;8.20;87.00
2042;DHT22;1026;51.460;7.252;2023-04-26T09:34:50;8.30;86.20
2042;DHT22;1026;51.460;7.252;2023-04-26T09:37:16;8.30;86.10
2042;DHT22;1026;51.460;7.252;2023-04-26T09:39:42;8.30;86.00
2042;DHT22;1026;51.460;7.252;2023-04-26T09:42:09;8.30;85.90
2042;DHT22;1026;51.460;7.252;2023-04-26T09:44:36;8.40;86.10
2042;DHT22;1026;51.460;7.252;2023-04-26T09:47:05;8.40;86.00
2042;DHT22;1026;51.460;7.252;2023-04-26T09:49:43;8.40;85.80
2042;DHT22;1026;51.460;7.252;2023-04-26T09:52:09;8.40;85.80
2042;DHT22;1026;51.460;7.252;2023-04-26T09:57:05;8.50;85.90
2042;DHT22;1026;51.460;7.252;2023-04-26T09:59:42;8.50;85.90
2042;DHT22;1026;51.460;7.252;2023-04-26T10:02:13;8.30;85.70
2042;DHT22;1026;51.460;7.252;2023-04-26T10:04:42;8.40;85.50
2042;DHT22;1026;51.460;7.252;2023-04-26T10:07:08;8.50;85.40
2042;DHT22;1026;51.460;7.252;2023-04-26T10:09:34;8.50;85.70
2042;DHT22;1026;51.460;7.252;2023-04-26T10:12:09;8.60;85.00
2042;DHT22;1026;51.460;7.252;2023-04-26T10:14:36;8.60;85.50
2042;DHT22;1026;51.460;7.252;2023-04-26T10:17:03;8.60;85.50
2042;DHT22;1026;51.460;7.252;2023-04-26T10:19:29;8.60;85.30
2042;DHT22;1026;51.460;7.252;2023-04-26T10:22:00;8.70;85.40
2042;DHT22;1026;51.460;7.252;2023-04-26T10:24:28;8.70;85.40
2042;DHT22;1026;51.460;7.252;2023-04-26T10:26:54;8.60;85.10
2042;DHT22;1026;51.460;7.252;2023-04-26T10:29:23;8.70;85.20
2042;DHT22;1026;51.460;7.252;2023-04-26T10:32:05;8.80;85.20
2042;DHT22;1026;51.460;7.252;2023-04-26T10:34:33;8.80;84.80
2042;DHT22;1026;51.460;7.252;2023-04-26T10:37:15;8.80;83.90
2042;DHT22;1026;51.460;7.252;2023-04-26T10:39:43;8.80;85.00
2042;DHT22;1026;51.460;7.252;2023-04-26T10:42:19;8.90;85.20
2042;DHT22;1026;51.460;7.252;2023-04-26T10:44:48;8.90;84.90
2042;DHT22;1026;51.460;7.252;2023-04-26T10:47:29;8.80;84.90
2042;DHT22;1026;51.460;7.252;2023-04-26T10:50:11;8.80;85.00
2042;DHT22;1026;51.460;7.252;2023-04-26T10:55:39;9.00;85.10
2042;DHT22;1026;51.460;7.252;2023-04-26T10:58:25;8.90;83.70
2042;DHT22;1026;51.460;7.252;2023-04-26T11:01:09;9.00;85.10
2042;DHT22;1026;51.460;7.252;2023-04-26T11:03:42;9.00;84.40
2042;DHT22;1026;51.460;7.252;2023-04-26T11:06:09;9.00;84.80
2042;DHT22;1026;51.460;7.252;2023-04-26T11:08:38;9.00;85.00
2042;DHT22;1026;51.460;7.252;2023-04-26T11:13:31;9.10;85.10
2042;DHT22;1026;51.460;7.252;2023-04-26T11:16:00;9.10;84.70
2042;DHT22;1026;51.460;7.252;2023-04-26T11:18:28;9.10;84.10
2042;DHT22;1026;51.460;7.252;2023-04-26T11:20:55;9.10;84.50
2042;DHT22;1026;51.460;7.252;2023-04-26T11:23:22;9.10;84.80
2042;DHT22;1026;51.460;7.252;2023-04-26T11:25:48;9.10;84.70
2042;DHT22;1026;51.460;7.252;2023-04-26T11:28:13;9.20;84.60
2042;DHT22;1026;51.460;7.252;2023-04-26T11:30:39;9.20;84.10
2042;DHT22;1026;51.460;7.252;2023-04-26T11:33:05;9.20;84.50
2042;DHT22;1026;51.460;7.252;2023-04-26T11:35:34;9.20;84.30
2042;DHT22;1026;51.460;7.252;2023-04-26T11:38:02;9.20;84.20
2042;DHT22;1026;51.460;7.252;2023-04-26T11:40:30;9.30;83.90
2042;DHT22;1026;51.460;7.252;2023-04-26T11:43:00;9.30;83.80
2042;DHT22;1026;51.460;7.252;2023-04-26T11:45:27;9.30;84.40
2042;DHT22;1026;51.460;7.252;2023-04-26T11:47:52;9.30;84.40
2042;DHT22;1026;51.460;7.252;2023-04-26T11:50:19;9.30;84.50
2042;DHT22;1026;51.460;7.252;2023-04-26T11:52:48;9.40;84.40
2042;DHT22;1026;51.460;7.252;2023-04-26T11:55:14;9.40;83.20
2042;DHT22;1026;51.460;7.252;2023-04-26T11:57:39;9.40;83.40
2042;DHT22;1026;51.460;7.252;2023-04-26T12:00:07;9.40;84.30
2042;DHT22;1026;51.460;7.252;2023-04-26T12:02:35;9.40;84.00
2042;DHT22;1026;51.460;7.252;2023-04-26T12:05:01;9.50;83.50
2042;DHT22;1026;51.460;7.252;2023-04-26T12:07:34;9.50;83.70
2042;DHT22;1026;51.460;7.252;2023-04-26T12:10:16;9.50;83.90
2042;DHT22;1026;51.460;7.252;2023-04-26T12:12:44;9.50;83.20
2042;DHT22;1026;51.460;7.252;2023-04-26T12:15:11;9.50;84.00
2042;DHT22;1026;51.460;7.252;2023-04-26T12:17:37;9.50;84.10
2042;DHT22;1026;51.460;7.252;2023-04-26T12:20:10;9.50;84.00
2042;DHT22;1026;51.460;7.252;2023-04-26T12:22:36;9.60;83.60
2042;DHT22;1026;51.460;7.252;2023-04-26T12:25:04;9.60;84.00
2042;DHT22;1026;51.460;7.252;2023-04-26T12:27:31;9.60;83.50
2042;DHT22;1026;51.460;7.252;2023-04-26T12:29:57;9.60;84.00
2042;DHT22;1026;51.460;7.252;2023-04-26T12:32:26;9.60;82.70
2042;DHT22;1026;51.460;7.252;2023-04-26T12:34:52;9.70;83.90
2042;DHT22;1026;51.460;7.252;2023-04-26T12:37:18;9.70;83.90
2042;DHT22;1026;51.460;7.252;2023-04-26T12:39:43;9.70;83.90
2042;DHT22;1026;51.460;7.252;2023-04-26T12:42:16;9.70;83.30
2042;DHT22;1026;51.460;7.252;2023-04-26T12:44:41;9.70;82.70
2042;DHT22;1026;51.460;7.252;2023-04-26T12:47:16;9.70;83.10
2042;DHT22;1026;51.460;7.252;2023-04-26T12:49:42;9.80;84.00
2042;DHT22;1026;51.460;7.252;2023-04-26T12:52:08;9.80;83.30
2042;DHT22;1026;51.460;7.252;2023-04-26T12:54:40;9.80;83.20
2042;DHT22;1026;51.460;7.252;2023-04-26T12:57:06;9.80;83.00
2042;DHT22;1026;51.460;7.252;2023-04-26T12:59:32;9.90;83.60
2042;DHT22;1026;51.460;7.252;2023-04-26T13:05:23;9.90;83.00
2042;DHT22;1026;51.460;7.252;2023-04-26T13:07:50;9.90;83.10
2042;DHT22;1026;51.460;7.252;2023-04-26T13:10:16;9.90;81.80
2042;DHT22;1026;51.460;7.252;2023-04-26T13:12:42;9.90;82.90
2042;DHT22;1026;51.460;7.252;2023-04-26T13:15:08;9.90;83.10
2042;DHT22;1026;51.460;7.252;2023-04-26T13:17:35;10.00;82.10
2042;DHT22;1026;51.460;7.252;2023-04-26T13:20:02;10.00;82.30
2042;DHT22;1026;51.460;7.252;2023-04-26T13:22:28;10.00;82.30
2042;DHT22;1026;51.460;7.252;2023-04-26T13:24:54;10.10;82.20
2042;DHT22;1026;51.460;7.252;2023-04-26T13:27:20;10.10;82.20
2042;DHT22;1026;51.460;7.252;2023-04-26T13:29:45;10.10;82.30
2042;DHT22;1026;51.460;7.252;2023-04-26T13:32:23;10.10;81.90
2042;DHT22;1026;51.460;7.252;2023-04-26T13:34:49;10.10;81.70
2042;DHT22;1026;51.460;7.252;2023-04-26T13:37:16;10.10;80.70
2042;DHT22;1026;51.460;7.252;2023-04-26T13:39:43;10.10;79.60
2042;DHT22;1026;51.460;7.252;2023-04-26T13:42:09;10.20;80.80
2042;DHT22;1026;51.460;7.252;2023-04-26T13:44:35;10.20;81.50
2042;DHT22;1026;51.460;7.252;2023-04-26T13:47:01;10.20;79.70
2042;DHT22;1026;51.460;7.252;2023-04-26T13:49:26;10.20;79.70
2042;DHT22;1026;51.460;7.252;2023-04-26T13:51:53;10.30;79.90
2042;DHT22;1026;51.460;7.252;2023-04-26T13:54:19;10.30;80.60
2042;DHT22;1026;51.460;7.252;2023-04-26T13:56:46;10.30;80.60
2042;DHT22;1026;51.460;7.252;2023-04-26T13:59:12;10.30;79.30
2042;DHT22;1026;51.460;7.252;2023-04-26T14:01:38;10.30;80.40
2042;DHT22;1026;51.460;7.252;2023-04-26T14:04:05;10.40;80.20
2042;DHT22;1026;51.460;7.252;2023-04-26T14:06:30;10.40;79.30
2042;DHT22;1026;51.460;7.252;2023-04-26T14:08:57;10.40;80.30
2042;DHT22;1026;51.460;7.252;2023-04-26T14:11:23;10.50;79.80
2042;DHT22;1026;51.460;7.252;2023-04-26T14:13:48;10.50;80.30
2042;DHT22;1026;51.460;7.252;2023-04-26T14:16:15;10.50;80.40
2042;DHT22;1026;51.460;7.252;2023-04-26T14:18:41;10.60;80.50
2042;DHT22;1026;51.460;7.252;2023-04-26T14:21:10;10.60;79.80
2042;DHT22;1026;51.460;7.252;2023-04-26T14:23:37;10.60;79.70
2042;DHT22;1026;51.460;7.252;2023-04-26T14:26:03;10.60;75.60
2042;DHT22;1026;51.460;7.252;2023-04-26T14:28:29;10.70;76.90
2042;DHT22;1026;51.460;7.252;2023-04-26T14:30:54;10.70;79.40
2042;DHT22;1026;51.460;7.252;2023-04-26T14:33:20;10.70;79.40
2042;DHT22;1026;51.460;7.252;2023-04-26T14:35:46;10.70;80.30
2042;DHT22;1026;51.460;7.252;2023-04-26T14:38:12;10.80;78.20
2042;DHT22;1026;51.460;7.252;2023-04-26T14:40:37;10.80;79.00
2042;DHT22;1026;51.460;7.252;2023-04-26T14:43:03;10.80;79.40
2042;DHT22;1026;51.460;7.252;2023-04-26T14:45:29;10.90;78.40
2042;DHT22;1026;51.460;7.252;2023-04-26T14:47:58;10.90;77.40
2042;DHT22;1026;51.460;7.252;2023-04-26T14:50:24;10.90;78.30
2042;DHT22;1026;51.460;7.252;2023-04-26T14:52:51;10.90;77.30
2042;DHT22;1026;51.460;7.252;2023-04-26T14:55:17;10.90;77.40
2042;DHT22;1026;51.460;7.252;2023-04-26T14:57:43;11.00;77.60
2042;DHT22;1026;51.460;7.252;2023-04-26T15:00:10;11.00;78.50
2042;DHT22;1026;51.460;7.252;2023-04-26T15:02:40;11.00;77.10
2042;DHT22;1026;51.460;7.252;2023-04-26T15:05:06;11.00;78.60
2042;DHT22;1026;51.460;7.252;2023-04-26T15:07:32;11.00;79.00
2042;DHT22;1026;51.460;7.252;2023-04-26T15:09:58;11.00;79.30
2042;DHT22;1026;51.460;7.252;2023-04-26T15:12:24;11.00;79.60
2042;DHT22;1026;51.460;7.252;2023-04-26T15:14:50;11.00;79.20
2042;DHT22;1026;51.460;7.252;2023-04-26T15:17:16;11.00;79.20
2042;DHT22;1026;51.460;7.252;2023-04-26T15:19:41;11.10;78.20
2042;DHT22;1026;51.460;7.252;2023-04-26T15:22:07;11.10;78.60
2042;DHT22;1026;51.460;7.252;2023-04-26T15:24:36;11.10;78.40
2042;DHT22;1026;51.460;7.252;2023-04-26T15:27:02;11.10;76.30
2042;DHT22;1026;51.460;7.252;2023-04-26T15:29:30;11.10;78.20
2042;DHT22;1026;51.460;7.252;2023-04-26T15:31:56;11.20;74.40
2042;DHT22;1026;51.460;7.252;2023-04-26T15:34:22;11.20;76.90
2042;DHT22;1026;51.460;7.252;2023-04-26T15:36:49;11.20;77.70
2042;DHT22;1026;51.460;7.252;2023-04-26T15:39:15;11.20;77.20
2042;DHT22;1026;51.460;7.252;2023-04-26T15:41:41;11.20;76.90
2042;DHT22;1026;51.460;7.252;2023-04-26T15:44:06;11.20;77.70
2042;DHT22;1026;51.460;7.252;2023-04-26T15:46:32;11.20;77.90
2042;DHT22;1026;51.460;7.252;2023-04-26T15:48:58;11.20;78.00
2042;DHT22;1026;51.460;7.252;2023-04-26T15:51:23;11.20;77.30
2042;DHT22;1026;51.460;7.252;2023-04-26T15:53:49;11.20;78.00
2042;DHT22;1026;51.460;7.252;2023-04-26T15:56:16;11.20;77.90
2042;DHT22;1026;51.460;7.252;2023-04-26T15:58:44;11.20;78.60
2042;DHT22;1026;51.460;7.252;2023-04-26T16:01:10;11.20;78.90
2042;DHT22;1026;51.460;7.252;2023-04-26T16:03:36;11.20;78.50
2042;DHT22;1026;51.460;7.252;2023-04-26T16:06:02;11.20;79.00
2042;DHT22;1026;51.460;7.252;2023-04-26T16:08:28;11.20;79.30
2042;DHT22;1026;51.460;7.252;2023-04-26T16:11:01;11.30;77.80
2042;DHT22;1026;51.460;7.252;2023-04-26T16:13:28;11.30;78.70
2042;DHT22;1026;51.460;7.252;2023-04-26T16:15:54;11.30;78.50
2042;DHT22;1026;51.460;7.252;2023-04-26T16:18:20;11.30;78.80
2042;DHT22;1026;51.460;7.252;2023-04-26T16:20:47;11.30;78.20
2042;DHT22;1026;51.460;7.252;2023-04-26T16:23:13;11.30;78.00
2042;DHT22;1026;51.460;7.252;2023-04-26T16:25:40;11.30;78.00